Time;durP1;ratioP1;P1;durP2;ratioP2;P2;SDS_P1;SDS_P2;PMS_P1;PMS_P2;Temp;Humidity;BMP_temperature;BMP_pressure;BME280_temperature;BME280_humidity;BME280_pressure;Samples;Min_cycle;Max_cycle;Signal;HPM_P1;HPM_P2
2023/01/26 00:01:33;;;;;;;2.78;1.40;;;;;;;-0.12;100.00;102658.78;5036024;27;97981;-28
2023/01/26 00:03:58;;;;;;;1.33;1.00;;;;;;;-0.06;100.00;102666.84;5035869;28;97268;-28
2023/01/26 00:06:24;;;;;;;4.43;2.60;;;;;;;-0.06;100.00;102658.84;5035492;27;96427;-28
2023/01/26 00:08:52;;;;;;;1.33;0.95;;;;;;;-0.10;100.00;102651.69;5034741;28;96817;-28
2023/01/26 00:11:23;;;;;;;2.65;1.20;;;;;;;-0.09;100.00;102672.13;5034410;28;101093;-28
2023/01/26 00:13:49;;;;;;;3.20;2.70;;;;;;;-0.06;100.00;102656.19;5035644;28;99145;-29
2023/01/26 00:16:14;;;;;;;2.03;1.92;;;;;;;-0.06;99.82;102655.28;5034627;28;97089;-28
2023/01/26 00:18:41;;;;;;;0.20;0.20;;;;;;;-0.12;100.00;102676.50;5035891;28;96539;-28
2023/01/26 00:21:09;;;;;;;3.08;1.80;;;;;;;-0.08;100.00;102683.69;5035471;27;97494;-29
2023/01/26 00:23:35;;;;;;;2.70;1.55;;;;;;;-0.09;100.00;102657.94;5033541;28;100984;-28
2023/01/26 00:26:01;;;;;;;1.35;1.00;;;;;;;-0.08;100.00;102668.59;5034529;28;96547;-29
2023/01/26 00:28:28;;;;;;;1.17;1.00;;;;;;;-0.09;100.00;102671.25;5035427;28;96846;-28
2023/01/26 00:31:02;;;;;;;1.55;1.05;;;;;;;-0.05;100.00;102662.41;5033330;28;101144;-28
2023/01/26 00:33:28;;;;;;;1.95;1.65;;;;;;;-0.07;100.00;102657.06;5033991;28;100093;-28
2023/01/26 00:35:53;;;;;;;2.83;1.50;;;;;;;-0.12;100.00;102665.88;5036052;28;96682;-28
2023/01/26 00:38:19;;;;;;;2.22;1.27;;;;;;;-0.07;100.00;102678.38;5035551;28;96843;-28
2023/01/26 00:40:44;;;;;;;3.10;1.70;;;;;;;-0.06;100.00;102666.84;5035289;27;97488;-28
2023/01/26 00:43:09;;;;;;;0.88;0.63;;;;;;;-0.09;100.00;102658.81;5035350;28;97291;-28
2023/01/26 00:45:35;;;;;;;0.75;0.57;;;;;;;-0.08;100.00;102671.25;5035603;27;96458;-28
2023/01/26 00:48:00;;;;;;;1.65;1.25;;;;;;;-0.05;100.00;102663.31;5035745;28;96872;-30
2023/01/26 00:50:25;;;;;;;1.48;1.25;;;;;;;0.01;100.00;102657.16;5035100;28;97394;-28
2023/01/26 00:52:52;;;;;;;1.17;0.40;;;;;;;0.04;100.00;102648.31;5034907;28;97808;-28
2023/01/26 00:55:18;;;;;;;0.73;0.73;;;;;;;0.03;100.00;102657.19;5033996;28;96925;-28
2023/01/26 00:57:43;;;;;;;0.85;0.68;;;;;;;0.03;100.00;102651.84;5033890;28;96866;-28
2023/01/26 01:00:12;;;;;;;1.77;1.50;;;;;;;0.07;100.00;102648.31;5035212;27;97410;-28
2023/01/26 01:02:37;;;;;;;2.13;1.52;;;;;;;0.07;100.00;102640.34;5033442;28;101077;-28
2023/01/26 01:05:03;;;;;;;0.45;0.43;;;;;;;0.07;100.00;102633.25;5034549;27;96663;-28
2023/01/26 01:07:28;;;;;;;0.73;0.43;;;;;;;0.13;100.00;102645.75;5033624;28;96861;-29
2023/01/26 01:09:54;;;;;;;1.40;0.90;;;;;;;0.08;100.00;102642.13;5034984;27;98437;-28
2023/01/26 01:12:19;;;;;;;3.25;1.75;;;;;;;0.09;100.00;102631.47;5035184;28;97823;-30
2023/01/26 01:14:44;;;;;;;2.38;1.17;;;;;;;0.10;100.00;102640.38;5034975;27;96595;-28
2023/01/26 01:17:10;;;;;;;1.92;1.40;;;;;;;0.06;100.00;102628.78;5035430;28;96815;-32
2023/01/26 01:19:41;;;;;;;2.78;2.17;;;;;;;0.06;100.00;102633.22;5034163;28;98012;-28
2023/01/26 01:22:06;;;;;;;1.20;1.08;;;;;;;0.03;100.00;102623.44;5034462;28;99313;-28
2023/01/26 01:24:34;;;;;;;2.45;1.25;;;;;;;0.00;100.00;102612.75;5034552;27;96911;-28
2023/01/26 01:26:59;;;;;;;1.77;1.10;;;;;;;0.03;100.00;102622.56;5033446;28;96822;-30
2023/01/26 01:29:25;;;;;;;1.30;1.23;;;;;;;0.05;100.00;102621.69;5034600;28;97969;-28
2023/01/26 01:31:50;;;;;;;2.03;1.60;;;;;;;0.03;100.00;102623.44;5034588;28;97764;-28
2023/01/26 01:34:15;;;;;;;1.10;1.02;;;;;;;0.06;100.00;102604.81;5034710;27;96491;-28
2023/01/26 01:36:41;;;;;;;1.88;1.17;;;;;;;0.08;100.00;102623.50;5035220;28;96761;-29
2023/01/26 01:39:06;;;;;;;2.83;1.48;;;;;;;0.08;100.00;102626.16;5034325;27;99341;-29
2023/01/26 01:41:32;;;;;;;3.45;1.70;;;;;;;0.08;100.00;102626.16;5034592;28;97679;-28
2023/01/26 01:44:12;;;;;;;2.80;1.58;;;;;;;0.06;100.00;102619.91;5034267;27;96666;-28
2023/01/26 01:46:42;;;;;;;2.45;1.63;;;;;;;0.05;100.00;102616.38;5034479;28;96842;-28
2023/01/26 01:49:16;;;;;;;1.73;1.35;;;;;;;0.09;100.00;102620.81;5032946;28;101176;-28
2023/01/26 01:51:57;;;;;;;1.45;1.30;;;;;;;0.11;100.00;102627.06;5033076;28;101045;-28
2023/01/26 01:54:31;;;;;;;2.10;1.42;;;;;;;0.08;100.00;102623.50;5033053;28;96568;-28
2023/01/26 01:57:02;;;;;;;3.30;1.65;;;;;;;0.10;100.00;102611.97;5033023;28;96786;-28
2023/01/26 01:59:30;;;;;;;1.95;1.02;;;;;;;0.15;100.00;102622.69;5034321;28;98087;-28
2023/01/26 02:01:55;;;;;;;2.08;1.88;;;;;;;0.12;100.00;102619.97;5033119;28;100956;-28
2023/01/26 02:04:23;;;;;;;1.23;1.13;;;;;;;0.15;100.00;102614.69;5034352;27;96550;-28
2023/01/26 02:06:54;;;;;;;0.90;0.90;;;;;;;0.14;100.00;102611.13;5032827;28;97793;-28
2023/01/26 02:12:13;;;;;;;1.17;0.70;;;;;;;0.18;100.00;102615.59;5034420;28;97024;-30
2023/01/26 02:14:40;;;;;;;1.52;1.30;;;;;;;0.18;100.00;102615.59;5032907;28;96628;-28
2023/01/26 02:17:05;;;;;;;0.55;0.47;;;;;;;0.22;100.00;102608.53;5032937;27;96861;-29
2023/01/26 02:19:56;;;;;;;1.48;1.15;;;;;;;0.22;100.00;102608.53;5037228;27;99790;-28
2023/01/26 02:22:45;;;;;;;1.30;1.17;;;;;;;0.24;100.00;102612.13;5037041;28;99355;-28
2023/01/26 02:25:31;;;;;;;1.48;1.02;;;;;;;0.26;100.00;102613.00;5035893;28;96582;-28
2023/01/26 02:27:57;;;;;;;1.98;0.90;;;;;;;0.25;100.00;102600.56;5036556;28;96724;-30
2023/01/26 02:30:23;;;;;;;3.55;1.85;;;;;;;0.26;100.00;102606.78;5037526;27;97392;-29
2023/01/26 02:32:48;;;;;;;1.20;0.80;;;;;;;0.30;100.00;102611.25;5035789;28;101121;-28
2023/01/26 02:35:14;;;;;;;1.35;1.25;;;;;;;0.32;100.00;102612.19;5037277;27;96750;-28
2023/01/26 02:37:39;;;;;;;1.85;1.42;;;;;;;0.34;100.00;102605.09;5037552;28;96919;-29
2023/01/26 02:40:30;;;;;;;1.80;1.33;;;;;;;0.36;100.00;102614.00;5037469;27;97380;-28
2023/01/26 02:42:56;;;;;;;2.47;1.87;;;;;;;0.31;100.00;102602.38;5036380;28;97830;-27
2023/01/26 02:45:22;;;;;;;1.15;0.70;;;;;;;0.32;100.00;102610.41;5037457;27;96547;-29
2023/01/26 02:47:48;;;;;;;0.82;0.73;;;;;;;0.33;100.00;102616.63;5035936;28;96806;-28
2023/01/26 02:50:14;;;;;;;1.20;1.10;;;;;;;0.33;100.00;102614.84;5036853;28;99514;-29
2023/01/26 02:52:40;;;;;;;2.03;1.17;;;;;;;0.38;100.00;102622.88;5035405;28;102830;-28
2023/01/26 02:55:21;;;;;;;1.95;1.20;;;;;;;0.37;100.00;102622.00;5037206;27;96498;-32
2023/01/26 02:57:47;;;;;;;1.77;0.80;;;;;;;0.42;100.00;102614.94;5036017;28;96632;-29
2023/01/26 03:00:18;;;;;;;1.00;0.45;;;;;;;0.46;100.00;102623.84;5035084;28;101084;-28
2023/01/26 03:02:45;;;;;;;2.40;1.23;;;;;;;0.48;100.00;102621.19;5036885;28;99288;-28
2023/01/26 03:05:11;;;;;;;2.13;1.08;;;;;;;0.48;100.00;102610.53;5035760;28;96556;-28
2023/01/26 03:07:36;;;;;;;8.07;0.60;;;;;;;0.49;100.00;102623.00;5036888;28;96848;-29
2023/01/26 03:10:02;;;;;;;1.98;1.42;;;;;;;0.50;100.00;102624.75;5036664;28;98156;-28
2023/01/26 03:12:27;;;;;;;0.88;0.85;;;;;;;0.53;100.00;102631.03;5036796;28;97912;-28
2023/01/26 03:15:41;;;;;;;1.65;1.15;;;;;;;0.54;100.00;102627.47;5037006;27;96530;-29
2023/01/26 03:17:41;;;;;;;3.17;1.05;;;;;;;0.59;99.98;102624.84;5036667;28;96711;-28
2023/01/26 03:28:24;;;;;;;1.88;1.35;;;;;;;0.61;99.54;102609.75;5036591;27;96631;-29
2023/01/26 03:30:52;;;;;;;0.75;0.75;;;;;;;0.62;99.51;102620.44;5036242;27;99712;-28
2023/01/26 03:33:18;;;;;;;0.93;0.82;;;;;;;0.63;99.83;102610.66;5034879;28;100987;-28
2023/01/26 03:35:43;;;;;;;1.20;0.40;;;;;;;0.64;99.41;102609.78;5036861;27;96621;-28
2023/01/26 03:38:09;;;;;;;1.50;0.73;;;;;;;0.63;99.81;102603.56;5036746;28;96751;-29
2023/01/26 03:56:59;;;;;;;0.55;0.55;;;;;;;0.68;99.96;102608.94;5036444;28;96569;-29
2023/01/26 03:59:36;;;;;;;0.88;0.60;;;;;;;0.68;99.74;102605.38;5036496;28;96820;-28
2023/01/26 04:10:16;;;;;;;1.42;1.00;;;;;;;0.75;99.11;102607.22;5036652;28;96667;-28
2023/01/26 04:12:42;;;;;;;0.35;0.28;;;;;;;0.76;99.38;102603.66;5035666;27;99450;-28
2023/01/26 04:23:19;;;;;;;0.98;0.80;;;;;;;0.82;99.28;102609.91;5035367;28;97090;-28
2023/01/26 04:25:46;;;;;;;0.95;0.85;;;;;;;0.84;99.06;102616.16;5035004;28;98987;-28
2023/01/26 04:28:12;;;;;;;1.50;0.80;;;;;;;0.82;99.22;102612.59;5034418;28;96503;-27
2023/01/26 04:30:38;;;;;;;0.90;0.85;;;;;;;0.84;98.83;102623.28;5035595;28;96867;-28
2023/01/26 04:33:03;;;;;;;0.55;0.45;;;;;;;0.81;99.58;102607.22;5033928;28;100948;-28
2023/01/26 04:35:29;;;;;;;1.30;0.80;;;;;;;0.83;99.46;102613.47;5035914;28;97244;-29
2023/01/26 04:37:54;;;;;;;0.68;0.60;;;;;;;0.84;99.73;102625.94;5035726;27;96423;-30
2023/01/26 04:40:19;;;;;;;1.35;0.77;;;;;;;0.85;99.68;102625.06;5035015;27;96907;-28
2023/01/26 04:42:45;;;;;;;0.70;0.70;;;;;;;0.88;99.54;102621.50;5034790;28;99363;-28
2023/01/26 04:45:11;;;;;;;0.63;0.63;;;;;;;0.87;99.57;102614.41;5035408;28;97347;-28
2023/01/26 04:47:36;;;;;;;0.75;0.50;;;;;;;0.85;99.23;102617.94;5035692;27;96544;-28
2023/01/26 04:50:02;;;;;;;0.65;0.65;;;;;;;0.85;99.65;102612.59;5035476;28;96768;-28
2023/01/26 04:52:27;;;;;;;0.93;0.77;;;;;;;0.89;99.49;102620.66;5034860;27;97800;-28
2023/01/26 04:54:53;;;;;;;1.15;1.00;;;;;;;0.89;99.95;102613.53;5035086;28;97334;-28
2023/01/26 04:57:23;;;;;;;0.93;0.63;;;;;;;0.92;99.60;102612.66;5035319;27;96420;-28
2023/01/26 04:59:48;;;;;;;0.90;0.85;;;;;;;0.94;99.40;102605.56;5034350;28;97098;-28
2023/01/26 05:02:14;;;;;;;0.45;0.45;;;;;;;0.95;100.00;102607.34;5034996;28;97846;-28
2023/01/26 05:04:39;;;;;;;2.30;0.85;;;;;;;0.95;99.55;102605.56;5034651;28;99126;-28
2023/01/26 05:07:04;;;;;;;0.80;0.52;;;;;;;0.98;99.82;102607.38;5034753;27;96564;-29
2023/01/26 05:09:30;;;;;;;0.63;0.52;;;;;;;0.97;99.66;102609.13;5035016;28;96798;-28
2023/01/26 05:12:32;;;;;;;0.82;0.73;;;;;;;0.94;99.68;102601.13;5034880;27;97859;-28
2023/01/26 05:14:40;;;;;;;0.43;0.43;;;;;;;0.98;99.80;102605.59;5034373;28;98996;-29
2023/01/26 05:17:06;;;;;;;0.95;0.68;;;;;;;1.02;99.48;102614.50;5034894;28;96693;-29
2023/01/26 05:19:31;;;;;;;0.93;0.88;;;;;;;1.02;99.49;102610.03;5034992;28;96528;-28
2023/01/26 05:21:56;;;;;;;0.65;0.65;;;;;;;1.03;99.08;102611.84;5034759;27;97877;-29
2023/01/26 05:24:22;;;;;;;0.85;0.73;;;;;;;1.03;99.05;102606.50;5034395;28;96772;-30
2023/01/26 05:27:19;;;;;;;0.52;0.52;;;;;;;1.04;99.66;102604.72;5035132;27;96547;-29
2023/01/26 05:29:32;;;;;;;1.17;0.63;;;;;;;1.10;99.62;102610.13;5034469;28;96741;-28
2023/01/26 05:31:57;;;;;;;0.45;0.40;;;;;;;1.06;99.45;102609.19;5034294;28;97948;-29
2023/01/26 05:34:23;;;;;;;0.60;0.60;;;;;;;1.10;99.05;102611.88;5034728;28;97920;-28
2023/01/26 05:36:48;;;;;;;1.10;0.77;;;;;;;1.10;99.04;102609.19;5035428;27;96595;-28
2023/01/26 05:39:13;;;;;;;0.88;0.80;;;;;;;1.10;99.57;102603.88;5034837;28;97003;-28
2023/01/26 05:41:39;;;;;;;1.33;0.80;;;;;;;1.13;99.54;102612.78;5034649;28;97471;-28
2023/01/26 05:44:04;;;;;;;0.20;0.20;;;;;;;1.12;99.53;102616.38;5034688;28;97275;-28
2023/01/26 05:46:29;;;;;;;1.00;0.38;;;;;;;1.14;99.50;102625.25;5034833;28;96605;-28
2023/01/26 05:48:55;;;;;;;0.50;0.50;;;;;;;1.17;99.42;102625.28;5035104;28;96773;-28
2023/01/26 05:51:20;;;;;;;1.05;0.93;;;;;;;1.19;99.92;102630.63;5034516;27;97829;-28
2023/01/26 05:53:46;;;;;;;1.90;1.13;;;;;;;1.17;99.56;102624.38;5037916;28;97733;-28
2023/01/26 05:56:11;;;;;;;1.45;1.05;;;;;;;1.21;99.93;102626.19;5036262;28;96721;-28
2023/01/26 05:58:37;;;;;;;1.55;1.38;;;;;;;1.23;99.84;102632.44;5038104;28;96812;-29
2023/01/26 06:01:03;;;;;;;0.80;0.60;;;;;;;1.24;99.75;102628.84;5037945;28;97863;-30
2023/01/26 06:03:28;;;;;;;1.30;1.00;;;;;;;1.25;100.00;102633.34;5036407;28;100963;-28
2023/01/26 06:05:54;;;;;;;1.50;1.38;;;;;;;1.24;100.00;102620.84;5038136;27;96609;-28
2023/01/26 06:08:19;;;;;;;1.58;1.08;;;;;;;1.28;100.00;102631.56;5038097;28;96795;-29
2023/01/26 06:10:45;;;;;;;1.02;0.73;;;;;;;1.27;100.00;102620.91;5037511;28;99239;-28
2023/01/26 06:13:10;;;;;;;1.13;1.02;;;;;;;1.30;100.00;102628.91;5038099;28;96617;-30
2023/01/26 06:15:35;;;;;;;0.95;0.85;;;;;;;1.32;100.00;102635.16;5036815;28;96550;-30
2023/01/26 06:18:01;;;;;;;0.75;0.75;;;;;;;1.35;100.00;102636.94;5037766;28;96823;-28
2023/01/26 06:20:26;;;;;;;0.88;0.85;;;;;;;1.36;100.00;102636.03;5036737;27;99232;-29
2023/01/26 06:22:51;;;;;;;0.68;0.65;;;;;;;1.37;100.00;102636.06;5037378;28;99347;-28
2023/01/26 06:25:17;;;;;;;0.55;0.43;;;;;;;1.39;100.00;102630.75;5037299;27;96531;-28
2023/01/26 06:27:43;;;;;;;1.05;0.85;;;;;;;1.45;100.00;102641.44;5036167;28;96800;-29
2023/01/26 06:30:09;;;;;;;1.65;1.52;;;;;;;1.49;100.00;102632.56;5037202;27;99358;-28
2023/01/26 06:32:35;;;;;;;0.95;0.63;;;;;;;1.51;100.00;102636.16;5035759;28;102356;-28
2023/01/26 06:35:02;;;;;;;1.33;1.08;;;;;;;1.57;100.00;102641.50;5037386;27;96623;-28
2023/01/26 06:37:27;;;;;;;1.60;0.85;;;;;;;1.61;100.00;102639.75;5037746;28;96836;-28
2023/01/26 06:39:52;;;;;;;0.93;0.90;;;;;;;1.69;100.00;102648.66;5037006;27;99457;-28
2023/01/26 06:42:18;;;;;;;1.30;1.10;;;;;;;1.75;100.00;102651.38;5037067;28;97730;-28
2023/01/26 06:44:43;;;;;;;5.55;1.63;;;;;;;1.78;100.00;102655.84;5037171;27;96559;-28
2023/01/26 06:47:08;;;;;;;1.30;0.63;;;;;;;1.77;100.00;102648.72;5037344;28;96794;-28
2023/01/26 06:49:34;;;;;;;2.17;1.27;;;;;;;1.78;100.00;102651.38;5037213;27;97834;-29
2023/01/26 06:52:26;;;;;;;0.80;0.80;;;;;;;1.86;100.00;102670.09;5037082;28;97751;-28
2023/01/26 06:54:52;;;;;;;0.80;0.77;;;;;;;1.86;100.00;102660.34;5037202;27;96724;-28
2023/01/26 06:57:17;;;;;;;0.75;0.75;;;;;;;1.90;100.00;102670.13;5036004;28;96562;-28
2023/01/26 06:59:42;;;;;;;0.25;0.25;;;;;;;1.97;100.00;102671.06;5036836;27;99463;-28
2023/01/26 07:02:20;;;;;;;0.93;0.90;;;;;;;1.98;100.00;102662.16;5037339;28;97806;-28
2023/01/26 07:04:46;;;;;;;2.75;0.52;;;;;;;2.06;100.00;102672.88;5034990;27;96634;-28
2023/01/26 07:07:11;;;;;;;1.65;0.65;;;;;;;2.09;100.00;102673.75;5035462;28;96869;-29
2023/01/26 07:09:37;;;;;;;2.15;0.93;;;;;;;2.12;100.00;102676.47;5035779;28;98707;-28
2023/01/26 07:12:02;;;;;;;1.17;0.88;;;;;;;2.15;100.00;102677.38;5036869;28;97801;-30
2023/01/26 07:14:27;;;;;;;0.93;0.70;;;;;;;2.17;100.00;102679.16;5036892;28;96653;-29
2023/01/26 07:16:53;;;;;;;2.65;0.63;;;;;;;2.19;100.00;102684.47;5037156;28;96751;-28
2023/01/26 07:19:18;;;;;;;1.58;0.90;;;;;;;2.21;100.00;102678.25;5036804;27;97928;-28
2023/01/26 07:21:43;;;;;;;3.60;0.90;;;;;;;2.29;100.00;102689.00;5036690;28;97299;-28
2023/01/26 07:24:09;;;;;;;0.55;0.47;;;;;;;2.35;100.00;102694.34;5036139;27;96796;-28
2023/01/26 07:26:34;;;;;;;1.77;0.80;;;;;;;2.39;100.00;102687.22;5037298;28;96776;-28
2023/01/26 07:29:00;;;;;;;0.95;0.68;;;;;;;2.43;100.00;102689.91;5036228;27;99241;-28
2023/01/26 07:31:25;;;;;;;1.98;0.65;;;;;;;2.47;100.00;102691.69;5036384;28;97852;-28
2023/01/26 07:33:51;;;;;;;0.60;0.30;;;;;;;2.50;100.00;102694.38;5036243;27;96703;-28
2023/01/26 07:36:16;;;;;;;1.63;0.95;;;;;;;2.60;100.00;102705.97;5036713;28;96792;-29
2023/01/26 07:38:41;;;;;;;1.23;0.68;;;;;;;2.65;100.00;102701.53;5036143;27;97903;-28
2023/01/26 07:41:09;;;;;;;1.60;0.52;;;;;;;2.70;100.00;102705.09;5035950;28;99101;-28
2023/01/26 07:43:36;;;;;;;3.67;0.73;;;;;;;2.75;100.00;102708.66;5035160;28;97389;-29
2023/01/26 07:46:02;;;;;;;1.02;0.77;;;;;;;2.76;100.00;102709.56;5035412;28;96811;-28
2023/01/26 07:48:30;;;;;;;1.17;0.98;;;;;;;2.79;100.00;102709.56;5034740;28;98904;-28
2023/01/26 07:51:00;;;;;;;1.90;0.82;;;;;;;2.86;100.00;102711.38;5036525;28;97970;-28
2023/01/26 07:53:28;;;;;;;0.65;0.40;;;;;;;2.88;100.00;102719.38;5034474;28;96643;-28
2023/01/26 07:55:55;;;;;;;1.20;0.70;;;;;;;2.93;100.00;102720.25;5035008;28;96840;-28
2023/01/26 07:58:20;;;;;;;0.35;0.25;;;;;;;2.94;100.00;102722.06;5035428;28;99344;-29
2023/01/26 08:00:46;;;;;;;0.17;0.13;;;;;;;3.00;100.00;102726.50;5036019;28;97287;-30
2023/01/26 08:03:12;;;;;;;6.13;0.50;;;;;;;3.03;100.00;102727.44;5035957;27;96488;-28
2023/01/26 08:05:37;;;;;;;0.25;0.22;;;;;;;3.07;100.00;102734.53;5034472;28;96862;-28
2023/01/26 08:08:03;;;;;;;0.90;0.45;;;;;;;3.11;100.00;102733.66;5035838;27;97937;-30
2023/01/26 08:10:30;;;;;;;0.35;0.17;;;;;;;3.14;100.00;102732.75;5035932;28;97959;-29
2023/01/26 08:12:58;;;;;;;0.08;0.08;;;;;;;3.16;100.00;102728.31;5034969;28;96626;-28
2023/01/26 08:15:23;;;;;;;0.20;0.10;;;;;;;3.24;100.00;102733.66;5033727;27;96664;-28
2023/01/26 08:17:49;;;;;;;0.00;0.00;;;;;;;3.21;100.00;102734.53;5035786;27;97447;-28
2023/01/26 08:20:14;;;;;;;0.00;0.00;;;;;;;3.27;100.00;102739.03;5035593;28;97831;-28
2023/01/26 08:22:39;;;;;;;1.65;0.52;;;;;;;3.27;100.00;102742.59;5034855;28;96563;-29
2023/01/26 08:25:06;;;;;;;0.60;0.08;;;;;;;3.30;100.00;102745.25;5035401;28;96763;-28
2023/01/26 08:27:31;;;;;;;0.03;0.03;;;;;;;3.28;100.00;102733.66;5033976;28;100800;-29
2023/01/26 08:29:57;;;;;;;0.68;0.15;;;;;;;3.34;100.00;102741.69;5033903;28;100262;-28
2023/01/26 08:32:22;;;;;;;0.68;0.28;;;;;;;3.36;100.00;102749.69;5035617;27;96502;-28
2023/01/26 08:34:49;;;;;;;0.10;0.10;;;;;;;3.38;100.00;102742.56;5035745;28;96838;-28
2023/01/26 08:37:14;;;;;;;0.10;0.10;;;;;;;3.40;100.00;102748.81;5034017;28;101165;-29
2023/01/26 08:39:39;;;;;;;0.00;0.00;;;;;;;3.39;100.00;102747.94;5035746;28;98751;-28
2023/01/26 08:42:05;;;;;;;0.05;0.05;;;;;;;3.46;100.00;102755.97;5035742;27;96562;-30
2023/01/26 08:44:30;;;;;;;0.98;0.20;;;;;;;3.50;100.00;102749.69;5035408;28;96808;-28
2023/01/26 08:46:55;;;;;;;0.40;0.20;;;;;;;3.51;100.00;102755.06;5034569;27;99743;-29
2023/01/26 08:49:21;;;;;;;0.57;0.25;;;;;;;3.51;100.00;102752.38;5034998;28;97447;-28
2023/01/26 08:51:46;;;;;;;0.03;0.03;;;;;;;3.49;100.00;102750.59;5035951;27;96419;-29
2023/01/26 08:54:11;;;;;;;0.65;0.22;;;;;;;3.46;100.00;102756.84;5035005;28;96851;-29
2023/01/26 08:56:37;;;;;;;1.02;0.10;;;;;;;3.48;100.00;102755.06;5035106;27;97584;-28
2023/01/26 08:59:02;;;;;;;0.00;0.00;;;;;;;3.47;100.00;102750.59;5035084;28;97900;-29
2023/01/26 09:01:27;;;;;;;0.10;0.05;;;;;;;3.51;100.00;102760.41;5035511;27;96440;-30
2023/01/26 09:03:54;;;;;;;0.65;0.40;;;;;;;3.52;100.00;102761.31;5035825;28;96816;-28
2023/01/26 09:06:20;;;;;;;0.00;0.00;;;;;;;3.52;100.00;102755.94;5033519;28;101165;-28
2023/01/26 09:08:45;;;;;;;0.20;0.15;;;;;;;3.55;100.00;102759.53;5034927;28;97334;-28
2023/01/26 09:11:11;;;;;;;0.10;0.10;;;;;;;3.55;100.00;102755.94;5034563;27;96661;-28
2023/01/26 09:13:37;;;;;;;0.00;0.00;;;;;;;3.59;100.00;102763.97;5033769;28;96881;-28
2023/01/26 09:16:11;;;;;;;0.90;0.20;;;;;;;3.60;100.00;102764.88;5032819;27;101156;-27
2023/01/26 09:18:37;;;;;;;0.30;0.20;;;;;;;3.64;100.00;102772.00;5058001;27;100738;-28
2023/01/26 09:21:04;;;;;;;1.60;0.77;;;;;;;3.68;100.00;102773.78;5015008;28;96601;-28
2023/01/26 09:23:30;;;;;;;0.00;0.00;;;;;;;3.73;100.00;102771.09;5025038;28;96903;-28
2023/01/26 09:25:56;;;;;;;0.08;0.08;;;;;;;3.81;100.00;102783.59;5032878;28;100748;-29
2023/01/26 09:28:21;;;;;;;0.55;0.38;;;;;;;3.89;100.00;102783.56;5034662;28;96520;-28
2023/01/26 09:30:46;;;;;;;0.20;0.20;;;;;;;3.91;100.00;102784.47;5034873;27;96573;-29
2023/01/26 09:33:12;;;;;;;3.05;0.15;;;;;;;3.95;100.00;102793.38;5034490;27;96819;-28
2023/01/26 09:35:37;;;;;;;0.60;0.20;;;;;;;4.01;100.00;102788.91;5034028;27;99448;-28
2023/01/26 09:38:02;;;;;;;0.75;0.17;;;;;;;4.05;100.00;102792.44;5034272;28;97870;-28
2023/01/26 09:40:49;;;;;;;0.93;0.28;;;;;;;4.11;100.00;102797.81;5037936;27;98448;-28
2023/01/26 09:43:29;;;;;;;1.63;0.43;;;;;;;4.14;100.00;102789.75;5034531;28;96550;-27
2023/01/26 09:46:12;;;;;;;0.20;0.20;;;;;;;4.15;100.00;102780.81;5033496;27;97630;-29
2023/01/26 09:48:56;;;;;;;5.28;0.30;;;;;;;4.20;100.00;102786.16;5033763;28;99358;-30
2023/01/26 09:51:36;;;;;;;0.75;0.17;;;;;;;4.23;100.00;102783.47;5034405;27;96827;-29
2023/01/26 09:54:29;;;;;;;1.20;0.40;;;;;;;4.28;100.00;102781.66;5034381;28;96743;-28
2023/01/26 09:56:55;;;;;;;0.00;0.00;;;;;;;4.32;100.00;102782.53;5032400;28;100511;-28
2023/01/26 09:59:26;;;;;;;0.00;0.00;;;;;;;4.34;100.00;102787.00;5032395;28;100701;-29
2023/01/26 10:02:16;;;;;;;0.70;0.15;;;;;;;4.37;100.00;102786.09;5034168;27;96603;-29
2023/01/26 10:04:46;;;;;;;0.00;0.00;;;;;;;4.38;100.00;102785.19;5034521;27;96684;-28
2023/01/26 10:07:14;;;;;;;0.20;0.20;;;;;;;4.42;100.00;102795.88;5032680;28;101803;-29
2023/01/26 10:09:41;;;;;;;0.13;0.10;;;;;;;4.43;100.00;102792.31;5032578;28;100887;-29
2023/01/26 10:12:34;;;;;;;0.57;0.30;;;;;;;4.54;100.00;102794.06;5032909;28;96709;-30
2023/01/26 10:15:37;;;;;;;0.40;0.13;;;;;;;4.56;100.00;102789.56;5027638;28;96832;-28
2023/01/26 10:18:14;;;;;;;0.10;0.10;;;;;;;4.61;100.00;102795.81;5033794;27;99417;-29
2023/01/26 10:20:46;;;;;;;3.22;0.30;;;;;;;4.65;100.00;102798.47;5034336;28;97921;-28
2023/01/26 10:23:35;;;;;;;0.73;0.28;;;;;;;4.74;100.00;102802.00;5032415;28;96906;-28
2023/01/26 10:26:14;;;;;;;0.77;0.20;;;;;;;4.79;100.00;102793.03;5027053;28;96985;-29
2023/01/26 10:28:42;;;;;;;0.00;0.00;;;;;;;4.81;100.00;102787.63;5031964;28;101288;-29
2023/01/26 10:31:16;;;;;;;0.25;0.13;;;;;;;4.90;100.00;102792.94;5032378;28;100846;-28
2023/01/26 10:33:51;;;;;;;0.40;0.30;;;;;;;4.97;100.00;102793.78;5032666;28;96626;-29
2023/01/26 10:36:16;;;;;;;0.00;0.00;;;;;;;5.02;100.00;102791.97;5034417;27;96637;-28
2023/01/26 10:38:43;;;;;;;0.00;0.00;;;;;;;5.07;100.00;102795.50;5034544;27;97856;-28
2023/01/26 10:41:15;;;;;;;0.05;0.05;;;;;;;5.05;100.00;102798.22;5037168;28;97263;-28
2023/01/26 10:43:48;;;;;;;0.15;0.10;;;;;;;5.08;100.00;102797.31;5037636;27;96665;-29
2023/01/26 10:46:41;;;;;;;0.73;0.22;;;;;;;5.19;100.00;102798.09;5036241;28;96791;-29
2023/01/26 10:49:10;;;;;;;1.35;0.35;;;;;;;5.33;100.00;102800.69;5035691;28;97565;-29
2023/01/26 10:51:40;;;;;;;0.20;0.15;;;;;;;5.51;100.00;102805.91;5037151;28;97847;-28
2023/01/26 10:54:21;;;;;;;0.57;0.10;;;;;;;5.75;100.00;102795.84;5035249;28;96997;-28
2023/01/26 10:56:51;;;;;;;2.33;0.52;;;;;;;5.94;98.97;102792.06;5035710;28;96875;-28
2023/01/26 10:59:48;;;;;;;3.92;0.28;;;;;;;6.15;98.38;102796.31;5035457;28;100938;-28
2023/01/26 11:02:14;;;;;;;0.90;0.22;;;;;;;6.37;97.39;102791.56;5032103;28;100728;-27
2023/01/26 11:04:40;;;;;;;1.52;0.40;;;;;;;6.57;96.86;102802.06;5037353;28;96584;-28
2023/01/26 11:07:26;;;;;;;0.00;0.00;;;;;;;6.76;95.84;102786.53;5035560;28;96826;-29
2023/01/26 11:09:53;;;;;;;1.05;0.28;;;;;;;6.89;95.49;102797.13;5035287;28;101118;-28
2023/01/26 11:12:20;;;;;;;0.50;0.30;;;;;;;6.92;94.64;102783.63;5035555;28;98923;-28
2023/01/26 11:15:01;;;;;;;0.70;0.22;;;;;;;7.03;93.76;102789.72;5035487;28;96634;-29
2023/01/26 11:17:44;;;;;;;0.00;0.00;;;;;;;7.10;93.73;102783.31;5035468;28;96752;-28
2023/01/26 11:20:42;;;;;;;0.00;0.00;;;;;;;7.30;93.08;102776.75;5034698;28;100932;-28
2023/01/26 11:23:17;;;;;;;0.68;0.22;;;;;;;7.40;92.50;102764.88;5034992;28;100884;-28
2023/01/26 11:26:12;;;;;;;3.85;0.30;;;;;;;7.47;92.29;102763.84;5036532;27;96886;-28
2023/01/26 11:28:46;;;;;;;0.00;0.00;;;;;;;7.60;91.34;102760.03;5036944;27;96757;-29
2023/01/26 11:31:31;;;;;;;2.25;0.40;;;;;;;7.76;90.95;102770.53;5036639;27;97316;-28
2023/01/26 11:34:05;;;;;;;0.10;0.10;;;;;;;7.81;90.03;102774.91;5036476;28;97826;-28
2023/01/26 11:36:44;;;;;;;0.77;0.15;;;;;;;7.93;89.90;102772.91;5036638;27;96612;-28
2023/01/26 11:39:25;;;;;;;0.30;0.17;;;;;;;7.99;89.34;102773.69;5037273;27;96428;-28
2023/01/26 11:41:56;;;;;;;2.60;0.47;;;;;;;8.07;89.23;102771.69;5036150;27;99005;-28
2023/01/26 11:44:48;;;;;;;0.43;0.20;;;;;;;8.12;88.66;102774.31;5034906;28;101322;-28
2023/01/26 11:47:22;;;;;;;1.00;0.43;;;;;;;8.09;88.17;102766.28;5034658;28;96541;-29
2023/01/26 11:50:02;;;;;;;0.00;0.00;;;;;;;8.09;87.89;102766.28;5036230;28;96607;-28
2023/01/26 11:52:49;;;;;;;0.17;0.08;;;;;;;8.09;87.33;102767.16;5034363;28;100630;-29
2023/01/26 11:55:38;;;;;;;0.00;0.00;;;;;;;8.14;86.42;102758.09;5036201;27;97840;-29
2023/01/26 11:58:24;;;;;;;0.28;0.25;;;;;;;8.20;85.18;102761.56;5031320;28;96756;-30
2023/01/26 12:00:59;;;;;;;0.20;0.20;;;;;;;8.25;85.62;102756.06;5036455;27;96561;-28
2023/01/26 12:03:46;;;;;;;2.67;0.40;;;;;;;8.21;85.98;102743.53;5034516;28;100820;-29
2023/01/26 12:06:26;;;;;;;1.27;0.30;;;;;;;8.32;85.88;102756.81;5034830;28;100898;-28
2023/01/26 12:09:09;;;;;;;1.48;0.47;;;;;;;8.37;84.18;102741.41;5034624;28;96651;-28
2023/01/26 12:11:41;;;;;;;1.73;0.57;;;;;;;8.50;86.00;102745.63;5036057;27;97277;-28
2023/01/26 12:14:25;;;;;;;;;;;;;;;8.56;84.42;102736.53;5034369;28;100949;-28
2023/01/26 12:16:56;;;;;;;7.32;0.60;;;;;;;8.72;83.70;102735.22;5035555;27;99170;-28
2023/01/26 12:19:25;;;;;;;0.70;0.33;;;;;;;8.80;83.73;102727.84;5036069;27;96442;-29
2023/01/26 12:21:56;;;;;;;0.60;0.22;;;;;;;8.61;83.97;102730.09;5034356;28;96835;-28